Lake Charles Regional Airport Lake Charles US
ICAO: KLCH
IATA: LCH
Category: Medium
Scheduled Services: Yes

Elevation: 15 ft
TransAlt. 18000 ft.

Airport Communications:
APP/DEP:119.35
ATIS:118.75
CLNC DEL:126.25
CTAF:120.7
GND:121.8
DE RIDDER RDO:122.3
TWR:120.7
UNICOM:122.95

KLCH Zoom In..

If Map Doesn't Load, Click Here

Runways:

(A) RW 05 length 5200 ft width 100 ft
---- / hdg 49

(B) RW 15 length 6500 ft width 150 ft
ILS 109.10 / hdg 152

(C) RW 23 length 5200 ft width 100 ft
---- / hdg 229

(D) RW 33 length 6500 ft width 150 ft
---- / hdg 332

Location; KLCH
Day. 21 / Time. 14.53 Zulu
* Altimeter: 30.01
* Temperature: 28° c. 82.4°f.
* Wind from: 100° Speed 05 kn.
Dewpoint: 25° c.
Visibility: 10 Statute Miles.
Clouds: Few 5000 ft.
Clouds: Scattered 7000 ft.
Clouds: Broken 9500 ft.
Conditions: Light Rain.

KLCH 211453Z 10005KT 10SM -RA FEW050 SCT070 BKN095 28/25 A3001 RMK AO2 LTG DSNT SW AND W RAE05B30 SLP171 P0000 60001 T02780250 51007


Wind From 100°
Speed 05 kn.

 
 
jpsmedia.com for Web Design worldairports.se 2018   terms of use